sensor_id;sensor_type;location;lat;lon;timestamp;temperature;humidity
8872;DHT22;4472;52.092;9.820;2023-06-22T00:01:19;18.20;99.90
8872;DHT22;4472;52.092;9.820;2023-06-22T00:04:06;18.20;99.90
8872;DHT22;4472;52.092;9.820;2023-06-22T00:06:53;18.20;99.90
8872;DHT22;4472;52.092;9.820;2023-06-22T00:09:41;17.80;99.90
8872;DHT22;4472;52.092;9.820;2023-06-22T00:12:29;18.30;99.90
8872;DHT22;4472;52.092;9.820;2023-06-22T00:15:18;18.30;99.90
8872;DHT22;4472;52.092;9.820;2023-06-22T00:18:05;18.30;99.90
8872;DHT22;4472;52.092;9.820;2023-06-22T00:20:53;18.30;99.90
8872;DHT22;4472;52.092;9.820;2023-06-22T00:23:43;18.30;99.90
8872;DHT22;4472;52.092;9.820;2023-06-22T00:26:30;18.30;99.90
8872;DHT22;4472;52.092;9.820;2023-06-22T00:29:19;18.20;99.90
8872;DHT22;4472;52.092;9.820;2023-06-22T00:32:06;18.20;99.90
8872;DHT22;4472;52.092;9.820;2023-06-22T00:34:53;18.20;99.90
8872;DHT22;4472;52.092;9.820;2023-06-22T00:37:40;18.20;99.90
8872;DHT22;4472;52.092;9.820;2023-06-22T00:40:28;18.10;99.90
8872;DHT22;4472;52.092;9.820;2023-06-22T00:43:15;18.00;99.90
8872;DHT22;4472;52.092;9.820;2023-06-22T00:46:04;18.00;99.90
8872;DHT22;4472;52.092;9.820;2023-06-22T00:48:52;17.90;99.90
8872;DHT22;4472;52.092;9.820;2023-06-22T00:51:43;17.90;99.90
8872;DHT22;4472;52.092;9.820;2023-06-22T00:54:31;17.90;99.90
8872;DHT22;4472;52.092;9.820;2023-06-22T00:57:19;17.80;99.90
8872;DHT22;4472;52.092;9.820;2023-06-22T01:00:08;17.80;99.90
8872;DHT22;4472;52.092;9.820;2023-06-22T01:02:58;17.80;99.90
8872;DHT22;4472;52.092;9.820;2023-06-22T01:05:46;17.80;99.90
8872;DHT22;4472;52.092;9.820;2023-06-22T01:08:41;17.80;99.90
8872;DHT22;4472;52.092;9.820;2023-06-22T01:11:35;17.80;99.90
8872;DHT22;4472;52.092;9.820;2023-06-22T01:14:28;17.80;99.90
8872;DHT22;4472;52.092;9.820;2023-06-22T01:17:19;17.80;99.90
8872;DHT22;4472;52.092;9.820;2023-06-22T01:20:09;17.80;99.90
8872;DHT22;4472;52.092;9.820;2023-06-22T01:23:09;17.80;99.90
8872;DHT22;4472;52.092;9.820;2023-06-22T01:26:06;17.80;99.90
8872;DHT22;4472;52.092;9.820;2023-06-22T01:28:57;17.80;99.90
8872;DHT22;4472;52.092;9.820;2023-06-22T01:31:46;17.70;99.90
8872;DHT22;4472;52.092;9.820;2023-06-22T01:34:35;17.80;99.90
8872;DHT22;4472;52.092;9.820;2023-06-22T01:37:23;17.80;99.90
8872;DHT22;4472;52.092;9.820;2023-06-22T01:40:11;17.80;99.90
8872;DHT22;4472;52.092;9.820;2023-06-22T01:43:00;17.80;99.90
8872;DHT22;4472;52.092;9.820;2023-06-22T01:45:48;17.80;99.90
8872;DHT22;4472;52.092;9.820;2023-06-22T01:48:36;17.90;99.90
8872;DHT22;4472;52.092;9.820;2023-06-22T01:51:24;17.80;99.90
8872;DHT22;4472;52.092;9.820;2023-06-22T01:54:11;17.70;99.90
8872;DHT22;4472;52.092;9.820;2023-06-22T01:56:58;17.70;99.90
8872;DHT22;4472;52.092;9.820;2023-06-22T01:59:49;17.70;99.90
8872;DHT22;4472;52.092;9.820;2023-06-22T02:02:46;17.70;99.90
8872;DHT22;4472;52.092;9.820;2023-06-22T02:05:37;17.60;99.90
8872;DHT22;4472;52.092;9.820;2023-06-22T02:08:30;17.60;99.90
8872;DHT22;4472;52.092;9.820;2023-06-22T02:11:19;17.60;99.90
8872;DHT22;4472;52.092;9.820;2023-06-22T02:14:07;17.60;99.90
8872;DHT22;4472;52.092;9.820;2023-06-22T02:16:55;17.60;99.90
8872;DHT22;4472;52.092;9.820;2023-06-22T02:19:46;17.60;99.90
8872;DHT22;4472;52.092;9.820;2023-06-22T02:22:33;17.60;99.90
8872;DHT22;4472;52.092;9.820;2023-06-22T02:25:20;17.60;99.90
8872;DHT22;4472;52.092;9.820;2023-06-22T02:28:07;17.60;99.90
8872;DHT22;4472;52.092;9.820;2023-06-22T02:30:55;17.60;99.90
8872;DHT22;4472;52.092;9.820;2023-06-22T02:33:42;17.60;99.90
8872;DHT22;4472;52.092;9.820;2023-06-22T02:36:31;17.60;99.90
8872;DHT22;4472;52.092;9.820;2023-06-22T02:39:20;17.60;99.90
8872;DHT22;4472;52.092;9.820;2023-06-22T02:42:08;17.60;99.90
8872;DHT22;4472;52.092;9.820;2023-06-22T02:44:56;17.60;99.90
8872;DHT22;4472;52.092;9.820;2023-06-22T02:47:44;17.60;99.90
8872;DHT22;4472;52.092;9.820;2023-06-22T02:50:33;17.50;99.90
8872;DHT22;4472;52.092;9.820;2023-06-22T02:53:21;17.50;99.90
8872;DHT22;4472;52.092;9.820;2023-06-22T02:56:09;17.50;99.90
8872;DHT22;4472;52.092;9.820;2023-06-22T03:01:46;17.60;99.90
8872;DHT22;4472;52.092;9.820;2023-06-22T03:04:34;17.60;99.90
8872;DHT22;4472;52.092;9.820;2023-06-22T03:10:11;17.70;99.90
8872;DHT22;4472;52.092;9.820;2023-06-22T03:12:58;17.70;99.90
8872;DHT22;4472;52.092;9.820;2023-06-22T03:15:45;17.80;99.90
8872;DHT22;4472;52.092;9.820;2023-06-22T03:18:32;17.80;99.90
8872;DHT22;4472;52.092;9.820;2023-06-22T03:21:21;17.90;99.90
8872;DHT22;4472;52.092;9.820;2023-06-22T03:24:09;17.90;99.90
8872;DHT22;4472;52.092;9.820;2023-06-22T03:26:57;18.10;99.90
8872;DHT22;4472;52.092;9.820;2023-06-22T03:29:44;18.20;99.90
8872;DHT22;4472;52.092;9.820;2023-06-22T03:32:31;18.00;99.90
8872;DHT22;4472;52.092;9.820;2023-06-22T03:35:19;18.10;99.90
8872;DHT22;4472;52.092;9.820;2023-06-22T03:38:06;18.10;99.90
8872;DHT22;4472;52.092;9.820;2023-06-22T03:40:53;18.10;99.90
8872;DHT22;4472;52.092;9.820;2023-06-22T03:43:42;18.20;99.90
8872;DHT22;4472;52.092;9.820;2023-06-22T03:46:29;18.20;99.90
8872;DHT22;4472;52.092;9.820;2023-06-22T03:49:16;18.30;99.90
8872;DHT22;4472;52.092;9.820;2023-06-22T03:54:51;18.50;99.90
8872;DHT22;4472;52.092;9.820;2023-06-22T03:57:38;18.50;99.90
8872;DHT22;4472;52.092;9.820;2023-06-22T04:00:26;18.60;99.90
8872;DHT22;4472;52.092;9.820;2023-06-22T04:03:13;18.60;99.90
8872;DHT22;4472;52.092;9.820;2023-06-22T04:08:48;18.70;99.90
8872;DHT22;4472;52.092;9.820;2023-06-22T04:11:36;18.70;99.90
8872;DHT22;4472;52.092;9.820;2023-06-22T04:17:12;18.80;99.90
8872;DHT22;4472;52.092;9.820;2023-06-22T04:20:00;18.90;99.90
8872;DHT22;4472;52.092;9.820;2023-06-22T04:22:49;18.90;99.90
8872;DHT22;4472;52.092;9.820;2023-06-22T04:25:37;18.90;99.90
8872;DHT22;4472;52.092;9.820;2023-06-22T04:28:24;18.90;99.90
8872;DHT22;4472;52.092;9.820;2023-06-22T04:34:00;19.00;99.90
8872;DHT22;4472;52.092;9.820;2023-06-22T04:36:52;19.10;99.90
8872;DHT22;4472;52.092;9.820;2023-06-22T04:39:39;19.10;99.90
8872;DHT22;4472;52.092;9.820;2023-06-22T04:45:14;19.20;99.90
8872;DHT22;4472;52.092;9.820;2023-06-22T04:48:01;19.20;99.90
8872;DHT22;4472;52.092;9.820;2023-06-22T04:50:49;19.30;99.90
8872;DHT22;4472;52.092;9.820;2023-06-22T04:56:27;19.40;99.90
8872;DHT22;4472;52.092;9.820;2023-06-22T04:59:15;19.50;99.90
8872;DHT22;4472;52.092;9.820;2023-06-22T05:02:05;19.60;99.90
8872;DHT22;4472;52.092;9.820;2023-06-22T05:04:52;19.60;99.90
8872;DHT22;4472;52.092;9.820;2023-06-22T05:07:45;19.60;99.90
8872;DHT22;4472;52.092;9.820;2023-06-22T05:10:34;19.70;99.90
8872;DHT22;4472;52.092;9.820;2023-06-22T05:13:21;19.70;99.90
8872;DHT22;4472;52.092;9.820;2023-06-22T05:16:12;19.70;99.90
8872;DHT22;4472;52.092;9.820;2023-06-22T05:18:59;19.70;99.90
8872;DHT22;4472;52.092;9.820;2023-06-22T05:21:48;19.80;99.90
8872;DHT22;4472;52.092;9.820;2023-06-22T05:24:37;19.90;99.90
8872;DHT22;4472;52.092;9.820;2023-06-22T05:27:24;19.90;99.90
8872;DHT22;4472;52.092;9.820;2023-06-22T05:30:12;19.90;99.90
8872;DHT22;4472;52.092;9.820;2023-06-22T05:32:59;19.90;99.90
8872;DHT22;4472;52.092;9.820;2023-06-22T05:35:46;20.00;99.90
8872;DHT22;4472;52.092;9.820;2023-06-22T05:38:33;20.00;99.90
8872;DHT22;4472;52.092;9.820;2023-06-22T05:41:22;19.90;99.90
8872;DHT22;4472;52.092;9.820;2023-06-22T05:44:09;19.90;99.90
8872;DHT22;4472;52.092;9.820;2023-06-22T05:46:56;19.90;99.90
8872;DHT22;4472;52.092;9.820;2023-06-22T05:52:31;19.90;99.90
8872;DHT22;4472;52.092;9.820;2023-06-22T05:55:18;20.00;99.90
8872;DHT22;4472;52.092;9.820;2023-06-22T06:00:54;20.00;99.90
8872;DHT22;4472;52.092;9.820;2023-06-22T06:03:41;20.00;99.90
8872;DHT22;4472;52.092;9.820;2023-06-22T06:09:17;20.20;99.90
8872;DHT22;4472;52.092;9.820;2023-06-22T06:12:05;20.30;99.90
8872;DHT22;4472;52.092;9.820;2023-06-22T06:14:53;20.20;99.90
8872;DHT22;4472;52.092;9.820;2023-06-22T06:17:46;20.20;99.90
8872;DHT22;4472;52.092;9.820;2023-06-22T06:20:33;20.20;99.90
8872;DHT22;4472;52.092;9.820;2023-06-22T06:23:21;20.10;99.90
8872;DHT22;4472;52.092;9.820;2023-06-22T06:26:08;20.20;99.90
8872;DHT22;4472;52.092;9.820;2023-06-22T06:28:56;20.30;99.90
8872;DHT22;4472;52.092;9.820;2023-06-22T06:31:45;20.40;99.90
8872;DHT22;4472;52.092;9.820;2023-06-22T06:34:33;20.40;99.90
8872;DHT22;4472;52.092;9.820;2023-06-22T06:37:21;20.40;99.90
8872;DHT22;4472;52.092;9.820;2023-06-22T06:40:10;20.60;99.90
8872;DHT22;4472;52.092;9.820;2023-06-22T06:48:33;20.90;99.90
8872;DHT22;4472;52.092;9.820;2023-06-22T06:51:21;21.10;99.90
8872;DHT22;4472;52.092;9.820;2023-06-22T06:54:08;21.20;99.90
8872;DHT22;4472;52.092;9.820;2023-06-22T06:56:55;21.40;99.90
8872;DHT22;4472;52.092;9.820;2023-06-22T06:59:42;21.50;99.90
8872;DHT22;4472;52.092;9.820;2023-06-22T07:02:29;21.60;99.90
8872;DHT22;4472;52.092;9.820;2023-06-22T07:05:18;21.70;99.90
8872;DHT22;4472;52.092;9.820;2023-06-22T07:08:05;21.80;99.90
8872;DHT22;4472;52.092;9.820;2023-06-22T07:10:52;21.90;99.90
8872;DHT22;4472;52.092;9.820;2023-06-22T07:13:40;22.00;99.90
8872;DHT22;4472;52.092;9.820;2023-06-22T07:16:27;22.00;99.90
8872;DHT22;4472;52.092;9.820;2023-06-22T07:19:15;22.00;99.90
8872;DHT22;4472;52.092;9.820;2023-06-22T07:22:04;21.90;99.90
8872;DHT22;4472;52.092;9.820;2023-06-22T07:24:51;21.90;99.90
8872;DHT22;4472;52.092;9.820;2023-06-22T07:27:42;21.90;99.90
8872;DHT22;4472;52.092;9.820;2023-06-22T07:30:32;21.90;99.90
8872;DHT22;4472;52.092;9.820;2023-06-22T07:33:19;21.80;99.90
8872;DHT22;4472;52.092;9.820;2023-06-22T07:36:07;21.80;99.90
8872;DHT22;4472;52.092;9.820;2023-06-22T07:38:55;21.70;99.90
8872;DHT22;4472;52.092;9.820;2023-06-22T07:41:42;21.70;99.90
8872;DHT22;4472;52.092;9.820;2023-06-22T07:44:30;21.70;99.90
8872;DHT22;4472;52.092;9.820;2023-06-22T07:47:17;21.60;99.90
8872;DHT22;4472;52.092;9.820;2023-06-22T07:50:05;21.60;99.90
8872;DHT22;4472;52.092;9.820;2023-06-22T07:52:53;21.60;99.90
8872;DHT22;4472;52.092;9.820;2023-06-22T08:01:16;21.70;99.90
8872;DHT22;4472;52.092;9.820;2023-06-22T08:04:06;21.70;99.90
8872;DHT22;4472;52.092;9.820;2023-06-22T08:06:54;21.80;99.90
8872;DHT22;4472;52.092;9.820;2023-06-22T08:09:46;21.80;99.90
8872;DHT22;4472;52.092;9.820;2023-06-22T08:12:35;21.80;99.90
8872;DHT22;4472;52.092;9.820;2023-06-22T08:15:22;21.80;99.90
8872;DHT22;4472;52.092;9.820;2023-06-22T08:18:09;21.80;99.90
8872;DHT22;4472;52.092;9.820;2023-06-22T08:20:56;21.80;99.90
8872;DHT22;4472;52.092;9.820;2023-06-22T08:23:43;21.80;99.90
8872;DHT22;4472;52.092;9.820;2023-06-22T08:26:31;21.70;99.90
8872;DHT22;4472;52.092;9.820;2023-06-22T08:29:23;21.70;99.90
8872;DHT22;4472;52.092;9.820;2023-06-22T08:32:10;21.80;99.90
8872;DHT22;4472;52.092;9.820;2023-06-22T08:34:57;21.80;99.90
8872;DHT22;4472;52.092;9.820;2023-06-22T08:37:44;21.90;99.90
8872;DHT22;4472;52.092;9.820;2023-06-22T08:40:38;22.00;99.90
8872;DHT22;4472;52.092;9.820;2023-06-22T08:43:25;22.10;99.90
8872;DHT22;4472;52.092;9.820;2023-06-22T08:46:13;22.20;99.90
8872;DHT22;4472;52.092;9.820;2023-06-22T08:49:05;22.30;99.90
8872;DHT22;4472;52.092;9.820;2023-06-22T08:51:53;22.30;99.90
8872;DHT22;4472;52.092;9.820;2023-06-22T08:54:41;22.40;99.90
8872;DHT22;4472;52.092;9.820;2023-06-22T08:57:29;22.50;99.90
8872;DHT22;4472;52.092;9.820;2023-06-22T09:00:17;22.60;99.90
8872;DHT22;4472;52.092;9.820;2023-06-22T09:03:07;22.80;99.90
8872;DHT22;4472;52.092;9.820;2023-06-22T09:05:54;23.00;99.90
8872;DHT22;4472;52.092;9.820;2023-06-22T09:08:41;23.20;99.90
8872;DHT22;4472;52.092;9.820;2023-06-22T09:11:28;23.30;99.90
8872;DHT22;4472;52.092;9.820;2023-06-22T09:14:15;23.50;99.90
8872;DHT22;4472;52.092;9.820;2023-06-22T09:17:03;23.70;99.90
8872;DHT22;4472;52.092;9.820;2023-06-22T09:19:52;23.90;99.90
8872;DHT22;4472;52.092;9.820;2023-06-22T09:22:39;24.10;99.90
8872;DHT22;4472;52.092;9.820;2023-06-22T09:25:26;24.10;99.90
8872;DHT22;4472;52.092;9.820;2023-06-22T09:28:13;24.10;99.90
8872;DHT22;4472;52.092;9.820;2023-06-22T09:31:01;24.20;99.90
8872;DHT22;4472;52.092;9.820;2023-06-22T09:33:48;24.20;99.90
8872;DHT22;4472;52.092;9.820;2023-06-22T09:36:36;24.30;99.90
8872;DHT22;4472;52.092;9.820;2023-06-22T09:39:25;24.30;99.90
8872;DHT22;4472;52.092;9.820;2023-06-22T09:42:12;24.50;99.90
8872;DHT22;4472;52.092;9.820;2023-06-22T09:45:00;24.60;99.90
8872;DHT22;4472;52.092;9.820;2023-06-22T09:47:48;24.70;99.90
8872;DHT22;4472;52.092;9.820;2023-06-22T09:50:35;24.90;99.90
8872;DHT22;4472;52.092;9.820;2023-06-22T09:53:23;24.90;99.90
8872;DHT22;4472;52.092;9.820;2023-06-22T09:56:11;24.90;99.90
8872;DHT22;4472;52.092;9.820;2023-06-22T09:59:00;24.90;99.90
8872;DHT22;4472;52.092;9.820;2023-06-22T10:01:47;25.00;99.90
8872;DHT22;4472;52.092;9.820;2023-06-22T10:04:35;25.10;99.90
8872;DHT22;4472;52.092;9.820;2023-06-22T10:07:22;25.10;99.90
8872;DHT22;4472;52.092;9.820;2023-06-22T10:10:11;25.10;99.90
8872;DHT22;4472;52.092;9.820;2023-06-22T10:13:07;25.10;99.90
8872;DHT22;4472;52.092;9.820;2023-06-22T10:15:54;25.10;99.90
8872;DHT22;4472;52.092;9.820;2023-06-22T10:18:42;25.10;99.90
8872;DHT22;4472;52.092;9.820;2023-06-22T10:21:29;25.00;99.90
8872;DHT22;4472;52.092;9.820;2023-06-22T10:24:16;25.00;99.90
8872;DHT22;4472;52.092;9.820;2023-06-22T10:27:05;25.10;99.90
8872;DHT22;4472;52.092;9.820;2023-06-22T10:29:52;25.00;99.90
8872;DHT22;4472;52.092;9.820;2023-06-22T10:32:40;25.00;99.90
8872;DHT22;4472;52.092;9.820;2023-06-22T10:35:28;25.10;99.90
8872;DHT22;4472;52.092;9.820;2023-06-22T10:38:15;25.20;99.90
8872;DHT22;4472;52.092;9.820;2023-06-22T10:41:02;25.40;99.90
8872;DHT22;4472;52.092;9.820;2023-06-22T10:43:50;25.80;99.90
8872;DHT22;4472;52.092;9.820;2023-06-22T10:46:37;26.20;99.90
8872;DHT22;4472;52.092;9.820;2023-06-22T10:49:25;26.50;99.90
8872;DHT22;4472;52.092;9.820;2023-06-22T10:52:12;26.60;99.90
8872;DHT22;4472;52.092;9.820;2023-06-22T10:54:59;26.70;99.90
8872;DHT22;4472;52.092;9.820;2023-06-22T10:57:46;26.60;99.90
8872;DHT22;4472;52.092;9.820;2023-06-22T11:00:35;26.60;99.90
8872;DHT22;4472;52.092;9.820;2023-06-22T11:03:22;26.60;99.90
8872;DHT22;4472;52.092;9.820;2023-06-22T11:06:09;26.50;99.90
8872;DHT22;4472;52.092;9.820;2023-06-22T11:08:57;26.50;99.90
8872;DHT22;4472;52.092;9.820;2023-06-22T11:11:44;26.50;99.90
8872;DHT22;4472;52.092;9.820;2023-06-22T11:14:32;26.50;99.90
8872;DHT22;4472;52.092;9.820;2023-06-22T11:17:21;26.50;99.90
8872;DHT22;4472;52.092;9.820;2023-06-22T11:20:09;26.50;99.90
8872;DHT22;4472;52.092;9.820;2023-06-22T11:22:57;26.50;99.90
8872;DHT22;4472;52.092;9.820;2023-06-22T11:25:44;26.70;99.90
8872;DHT22;4472;52.092;9.820;2023-06-22T11:28:32;26.60;99.90
8872;DHT22;4472;52.092;9.820;2023-06-22T11:31:19;26.70;99.90
8872;DHT22;4472;52.092;9.820;2023-06-22T11:34:07;26.70;99.90
8872;DHT22;4472;52.092;9.820;2023-06-22T11:36:54;26.90;99.90
8872;DHT22;4472;52.092;9.820;2023-06-22T11:39:42;26.90;99.90
8872;DHT22;4472;52.092;9.820;2023-06-22T11:42:29;26.90;99.90
8872;DHT22;4472;52.092;9.820;2023-06-22T11:45:16;27.00;99.90
8872;DHT22;4472;52.092;9.820;2023-06-22T11:50:54;27.30;99.90
8872;DHT22;4472;52.092;9.820;2023-06-22T11:53:41;27.50;99.90
8872;DHT22;4472;52.092;9.820;2023-06-22T11:56:28;27.60;99.70
8872;DHT22;4472;52.092;9.820;2023-06-22T11:59:15;27.60;99.80
8872;DHT22;4472;52.092;9.820;2023-06-22T12:02:03;27.80;97.50
8872;DHT22;4472;52.092;9.820;2023-06-22T12:04:51;28.00;99.70
8872;DHT22;4472;52.092;9.820;2023-06-22T12:07:42;28.20;98.60
8872;DHT22;4472;52.092;9.820;2023-06-22T12:10:30;28.20;99.10
8872;DHT22;4472;52.092;9.820;2023-06-22T12:13:17;28.00;98.70
8872;DHT22;4472;52.092;9.820;2023-06-22T12:16:05;27.90;99.10
8872;DHT22;4472;52.092;9.820;2023-06-22T12:18:52;27.80;98.90
8872;DHT22;4472;52.092;9.820;2023-06-22T12:21:39;27.80;98.10
8872;DHT22;4472;52.092;9.820;2023-06-22T12:24:28;27.70;98.50
8872;DHT22;4472;52.092;9.820;2023-06-22T12:27:16;27.70;98.40
8872;DHT22;4472;52.092;9.820;2023-06-22T12:30:04;27.80;98.60
8872;DHT22;4472;52.092;9.820;2023-06-22T12:32:52;27.90;99.90
8872;DHT22;4472;52.092;9.820;2023-06-22T12:35:39;28.20;98.70
8872;DHT22;4472;52.092;9.820;2023-06-22T12:41:15;28.40;96.70
8872;DHT22;4472;52.092;9.820;2023-06-22T12:44:02;28.40;96.80
8872;DHT22;4472;52.092;9.820;2023-06-22T12:46:49;28.50;97.20
8872;DHT22;4472;52.092;9.820;2023-06-22T12:49:36;28.60;96.80
8872;DHT22;4472;52.092;9.820;2023-06-22T12:52:24;28.50;97.40
8872;DHT22;4472;52.092;9.820;2023-06-22T12:55:11;28.60;97.60
8872;DHT22;4472;52.092;9.820;2023-06-22T12:57:59;28.70;97.60
8872;DHT22;4472;52.092;9.820;2023-06-22T13:00:46;28.70;97.70
8872;DHT22;4472;52.092;9.820;2023-06-22T13:03:33;28.60;96.40
8872;DHT22;4472;52.092;9.820;2023-06-22T13:06:21;28.50;97.40
8872;DHT22;4472;52.092;9.820;2023-06-22T13:09:09;28.40;97.50
8872;DHT22;4472;52.092;9.820;2023-06-22T13:11:56;28.20;97.50
8872;DHT22;4472;52.092;9.820;2023-06-22T13:18:27;28.00;96.80
8872;DHT22;4472;52.092;9.820;2023-06-22T13:21:15;27.80;96.40
8872;DHT22;4472;52.092;9.820;2023-06-22T13:24:02;27.70;97.00
8872;DHT22;4472;52.092;9.820;2023-06-22T13:26:50;27.50;97.50
8872;DHT22;4472;52.092;9.820;2023-06-22T13:29:37;27.30;97.40
8872;DHT22;4472;52.092;9.820;2023-06-22T13:32:24;27.10;98.50
8872;DHT22;4472;52.092;9.820;2023-06-22T13:35:13;27.00;99.50
8872;DHT22;4472;52.092;9.820;2023-06-22T13:38:00;26.90;99.90
8872;DHT22;4472;52.092;9.820;2023-06-22T13:40:47;26.80;99.70
8872;DHT22;4472;52.092;9.820;2023-06-22T13:43:34;26.70;99.70
8872;DHT22;4472;52.092;9.820;2023-06-22T13:46:21;26.70;99.90
8872;DHT22;4472;52.092;9.820;2023-06-22T13:49:09;26.60;99.90
8872;DHT22;4472;52.092;9.820;2023-06-22T13:51:57;26.50;99.90
8872;DHT22;4472;52.092;9.820;2023-06-22T13:54:44;26.40;99.90
8872;DHT22;4472;52.092;9.820;2023-06-22T13:57:31;26.30;99.90
8872;DHT22;4472;52.092;9.820;2023-06-22T14:00:19;26.30;99.90
8872;DHT22;4472;52.092;9.820;2023-06-22T14:03:06;26.30;99.90
8872;DHT22;4472;52.092;9.820;2023-06-22T14:05:53;26.30;99.90
8872;DHT22;4472;52.092;9.820;2023-06-22T14:11:31;26.30;99.90
8872;DHT22;4472;52.092;9.820;2023-06-22T14:14:18;26.40;99.90
8872;DHT22;4472;52.092;9.820;2023-06-22T14:17:06;26.50;99.90
8872;DHT22;4472;52.092;9.820;2023-06-22T14:19:53;26.70;99.90
8872;DHT22;4472;52.092;9.820;2023-06-22T14:22:40;26.80;99.90
8872;DHT22;4472;52.092;9.820;2023-06-22T14:25:29;26.90;99.90
8872;DHT22;4472;52.092;9.820;2023-06-22T14:28:16;27.00;99.90
8872;DHT22;4472;52.092;9.820;2023-06-22T14:31:04;27.00;99.90
8872;DHT22;4472;52.092;9.820;2023-06-22T14:33:51;27.20;99.90
8872;DHT22;4472;52.092;9.820;2023-06-22T14:36:38;27.20;99.90
8872;DHT22;4472;52.092;9.820;2023-06-22T14:39:25;27.30;99.90
8872;DHT22;4472;52.092;9.820;2023-06-22T14:42:13;27.20;99.90
8872;DHT22;4472;52.092;9.820;2023-06-22T14:45:01;27.10;99.90
8872;DHT22;4472;52.092;9.820;2023-06-22T14:47:48;26.80;99.90
8872;DHT22;4472;52.092;9.820;2023-06-22T14:50:35;26.70;99.90
8872;DHT22;4472;52.092;9.820;2023-06-22T14:53:23;26.60;99.90
8872;DHT22;4472;52.092;9.820;2023-06-22T14:56:10;26.50;99.90
8872;DHT22;4472;52.092;9.820;2023-06-22T14:58:59;26.40;99.90
8872;DHT22;4472;52.092;9.820;2023-06-22T15:01:46;26.30;99.90
8872;DHT22;4472;52.092;9.820;2023-06-22T15:04:33;26.10;99.90
8872;DHT22;4472;52.092;9.820;2023-06-22T15:07:21;26.10;99.90
8872;DHT22;4472;52.092;9.820;2023-06-22T15:12:56;25.80;99.90
8872;DHT22;4472;52.092;9.820;2023-06-22T15:15:45;25.70;99.90
8872;DHT22;4472;52.092;9.820;2023-06-22T15:18:32;25.60;99.90
8872;DHT22;4472;52.092;9.820;2023-06-22T15:21:21;25.40;99.90
8872;DHT22;4472;52.092;9.820;2023-06-22T15:24:08;25.20;99.90
8872;DHT22;4472;52.092;9.820;2023-06-22T15:26:55;24.90;99.90
8872;DHT22;4472;52.092;9.820;2023-06-22T15:29:42;24.60;99.90
8872;DHT22;4472;52.092;9.820;2023-06-22T15:32:31;24.20;99.90
8872;DHT22;4472;52.092;9.820;2023-06-22T15:35:18;23.80;99.90
8872;DHT22;4472;52.092;9.820;2023-06-22T15:38:05;23.30;99.90
8872;DHT22;4472;52.092;9.820;2023-06-22T15:40:53;22.80;99.90
8872;DHT22;4472;52.092;9.820;2023-06-22T15:43:40;22.30;99.90
8872;DHT22;4472;52.092;9.820;2023-06-22T15:46:27;21.90;99.90
8872;DHT22;4472;52.092;9.820;2023-06-22T15:49:15;21.60;99.90
8872;DHT22;4472;52.092;9.820;2023-06-22T15:52:03;20.20;99.90
8872;DHT22;4472;52.092;9.820;2023-06-22T15:54:50;21.20;99.90
8872;DHT22;4472;52.092;9.820;2023-06-22T16:00:27;20.90;99.90
8872;DHT22;4472;52.092;9.820;2023-06-22T16:03:14;20.70;99.90
8872;DHT22;4472;52.092;9.820;2023-06-22T16:06:03;20.50;99.90
8872;DHT22;4472;52.092;9.820;2023-06-22T16:08:50;20.30;99.90
8872;DHT22;4472;52.092;9.820;2023-06-22T16:11:37;20.10;99.90
8872;DHT22;4472;52.092;9.820;2023-06-22T16:14:24;20.10;99.90
8872;DHT22;4472;52.092;9.820;2023-06-22T16:17:11;20.10;99.90
8872;DHT22;4472;52.092;9.820;2023-06-22T16:19:58;20.00;99.90
8872;DHT22;4472;52.092;9.820;2023-06-22T16:22:47;19.90;99.90
8872;DHT22;4472;52.092;9.820;2023-06-22T16:25:34;19.90;99.90
8872;DHT22;4472;52.092;9.820;2023-06-22T16:28:21;19.90;99.90
8872;DHT22;4472;52.092;9.820;2023-06-22T16:31:08;19.90;99.90
8872;DHT22;4472;52.092;9.820;2023-06-22T16:33:55;19.80;99.90
8872;DHT22;4472;52.092;9.820;2023-06-22T16:36:42;19.70;99.90
8872;DHT22;4472;52.092;9.820;2023-06-22T16:39:31;19.70;99.90
8872;DHT22;4472;52.092;9.820;2023-06-22T16:42:18;19.70;99.90
8872;DHT22;4472;52.092;9.820;2023-06-22T16:45:06;19.60;99.90
8872;DHT22;4472;52.092;9.820;2023-06-22T16:47:53;19.60;99.90
8872;DHT22;4472;52.092;9.820;2023-06-22T16:50:40;19.60;99.90
8872;DHT22;4472;52.092;9.820;2023-06-22T16:53:28;19.60;99.90
8872;DHT22;4472;52.092;9.820;2023-06-22T16:56:16;19.70;99.90
8872;DHT22;4472;52.092;9.820;2023-06-22T16:59:03;19.70;99.90
8872;DHT22;4472;52.092;9.820;2023-06-22T17:01:52;19.70;99.90
8872;DHT22;4472;52.092;9.820;2023-06-22T17:04:41;19.70;99.90
8872;DHT22;4472;52.092;9.820;2023-06-22T17:07:32;19.80;99.90
8872;DHT22;4472;52.092;9.820;2023-06-22T17:10:21;19.80;99.90
8872;DHT22;4472;52.092;9.820;2023-06-22T17:13:09;19.80;99.90
8872;DHT22;4472;52.092;9.820;2023-06-22T17:15:59;19.90;99.90
8872;DHT22;4472;52.092;9.820;2023-06-22T17:18:47;19.90;99.90
8872;DHT22;4472;52.092;9.820;2023-06-22T17:21:35;20.00;99.90
8872;DHT22;4472;52.092;9.820;2023-06-22T17:24:24;20.00;99.90
8872;DHT22;4472;52.092;9.820;2023-06-22T17:27:11;20.00;99.90
8872;DHT22;4472;52.092;9.820;2023-06-22T17:30:07;19.60;99.90
8872;DHT22;4472;52.092;9.820;2023-06-22T17:32:55;20.00;99.90
8872;DHT22;4472;52.092;9.820;2023-06-22T17:35:46;20.10;99.90
8872;DHT22;4472;52.092;9.820;2023-06-22T17:38:36;20.10;99.90
8872;DHT22;4472;52.092;9.820;2023-06-22T17:41:31;20.10;99.90
8872;DHT22;4472;52.092;9.820;2023-06-22T17:44:19;20.10;99.90
8872;DHT22;4472;52.092;9.820;2023-06-22T17:47:08;20.10;99.90
8872;DHT22;4472;52.092;9.820;2023-06-22T17:50:04;20.10;99.90
8872;DHT22;4472;52.092;9.820;2023-06-22T17:58:29;20.10;99.90
8872;DHT22;4472;52.092;9.820;2023-06-22T18:01:16;20.10;99.90
8872;DHT22;4472;52.092;9.820;2023-06-22T18:04:06;20.10;99.90
8872;DHT22;4472;52.092;9.820;2023-06-22T18:06:55;20.10;99.90
8872;DHT22;4472;52.092;9.820;2023-06-22T18:09:42;20.10;99.90
8872;DHT22;4472;52.092;9.820;2023-06-22T18:12:30;20.10;99.90
8872;DHT22;4472;52.092;9.820;2023-06-22T18:15:18;20.20;99.90
8872;DHT22;4472;52.092;9.820;2023-06-22T18:18:07;20.20;99.90
8872;DHT22;4472;52.092;9.820;2023-06-22T18:20:58;20.20;99.90
8872;DHT22;4472;52.092;9.820;2023-06-22T18:23:46;20.10;99.90
8872;DHT22;4472;52.092;9.820;2023-06-22T18:29:21;20.10;99.90
8872;DHT22;4472;52.092;9.820;2023-06-22T18:32:09;20.10;99.90
8872;DHT22;4472;52.092;9.820;2023-06-22T18:34:56;20.10;99.90
8872;DHT22;4472;52.092;9.820;2023-06-22T18:37:45;20.10;99.90
8872;DHT22;4472;52.092;9.820;2023-06-22T18:40:34;20.00;99.90
8872;DHT22;4472;52.092;9.820;2023-06-22T18:43:21;20.00;99.90
8872;DHT22;4472;52.092;9.820;2023-06-22T18:46:30;20.00;99.90
8872;DHT22;4472;52.092;9.820;2023-06-22T18:49:17;20.00;99.90
8872;DHT22;4472;52.092;9.820;2023-06-22T18:52:06;20.00;99.90
8872;DHT22;4472;52.092;9.820;2023-06-22T18:54:55;20.10;99.90
8872;DHT22;4472;52.092;9.820;2023-06-22T18:57:43;20.10;99.90
8872;DHT22;4472;52.092;9.820;2023-06-22T19:00:30;20.10;99.90
8872;DHT22;4472;52.092;9.820;2023-06-22T19:03:30;20.10;99.90
8872;DHT22;4472;52.092;9.820;2023-06-22T19:09:39;20.10;99.90
8872;DHT22;4472;52.092;9.820;2023-06-22T19:12:28;20.00;99.90
8872;DHT22;4472;52.092;9.820;2023-06-22T19:15:15;20.10;99.90
8872;DHT22;4472;52.092;9.820;2023-06-22T19:18:14;20.00;99.90
8872;DHT22;4472;52.092;9.820;2023-06-22T19:21:03;19.90;99.90
8872;DHT22;4472;52.092;9.820;2023-06-22T19:23:50;19.90;99.90
8872;DHT22;4472;52.092;9.820;2023-06-22T19:26:38;20.00;99.90
8872;DHT22;4472;52.092;9.820;2023-06-22T19:29:27;20.00;99.90